Time;durP1;ratioP1;P1;durP2;ratioP2;P2;SDS_P1;SDS_P2;PMS_P1;PMS_P2;Temp;Humidity;BMP_temperature;BMP_pressure;BME280_temperature;BME280_humidity;BME280_pressure;Samples;Min_cycle;Max_cycle;Signal;HPM_P1;HPM_P2
2021/08/24 00:01:55;;;;;;;3.07;1.70;;;17.00;99.90;;;;;;5090604;28;20576;-71
2021/08/24 00:04:22;;;;;;;2.40;1.40;;;17.00;99.90;;;;;;5090203;28;20203;-71
2021/08/24 00:06:48;;;;;;;3.17;1.60;;;17.00;99.90;;;;;;5090557;28;20239;-71
2021/08/24 00:09:15;;;;;;;1.87;1.50;;;17.00;99.90;;;;;;5090673;28;20238;-71
2021/08/24 00:11:42;;;;;;;3.17;1.40;;;17.00;99.90;;;;;;5090232;28;20668;-71
2021/08/24 00:14:10;;;;;;;5.10;1.80;;;17.00;99.90;;;;;;5090459;28;20283;-71
2021/08/24 00:16:41;;;;;;;1.90;1.27;;;17.00;99.90;;;;;;5090165;28;20207;-71
2021/08/24 00:19:08;;;;;;;2.03;1.60;;;17.00;99.90;;;;;;5090194;28;20219;-71
2021/08/24 00:21:35;;;;;;;1.83;1.37;;;16.90;99.90;;;;;;5089891;28;20228;-71
2021/08/24 00:24:01;;;;;;;1.70;1.60;;;16.90;99.90;;;;;;5090241;28;20312;-71
2021/08/24 00:26:28;;;;;;;2.43;1.37;;;16.90;99.90;;;;;;5090048;28;20616;-71
2021/08/24 00:28:55;;;;;;;1.60;1.50;;;16.80;99.90;;;;;;5090037;28;20230;-71
2021/08/24 00:31:21;;;;;;;1.97;1.50;;;16.70;99.90;;;;;;5089968;28;20679;-71
2021/08/24 00:33:49;;;;;;;2.90;1.53;;;16.60;99.90;;;;;;5090216;28;20395;-72
2021/08/24 00:36:19;;;;;;;2.17;1.37;;;16.50;99.90;;;;;;5090163;28;20267;-71
2021/08/24 00:38:46;;;;;;;1.70;1.60;;;16.50;99.90;;;;;;5089794;28;20207;-72
2021/08/24 00:41:13;;;;;;;2.10;1.70;;;16.40;99.90;;;;;;5090076;28;20234;-71
2021/08/24 00:43:42;;;;;;;1.93;1.60;;;16.50;99.90;;;;;;5089750;28;20203;-71
2021/08/24 00:46:19;;;;;;;2.47;1.80;;;16.50;99.90;;;;;;5089550;28;20266;-71
2021/08/24 00:48:46;;;;;;;2.20;1.83;;;16.50;99.90;;;;;;5089680;28;20233;-71
2021/08/24 00:51:18;;;;;;;2.03;1.83;;;16.60;99.90;;;;;;5089566;28;20668;-71
2021/08/24 00:53:45;;;;;;;2.40;1.43;;;16.50;99.90;;;;;;5089195;28;20659;-70
2021/08/24 00:56:12;;;;;;;3.13;1.90;;;16.50;99.90;;;;;;5089376;28;20211;-71
2021/08/24 00:58:40;;;;;;;2.37;1.67;;;16.50;99.90;;;;;;5089314;28;20215;-71
2021/08/24 01:01:07;;;;;;;2.03;1.83;;;16.50;99.90;;;;;;5089473;28;20199;-71
2021/08/24 01:03:37;;;;;;;2.37;1.50;;;16.40;99.90;;;;;;5089378;28;20209;-72
2021/08/24 01:06:12;;;;;;;2.77;1.47;;;16.40;99.90;;;;;;5089043;28;20230;-72
2021/08/24 01:08:48;;;;;;;4.13;1.70;;;16.40;99.90;;;;;;5089187;28;20304;-73
2021/08/24 01:11:24;;;;;;;2.33;1.70;;;16.40;99.90;;;;;;5089440;28;20217;-73
2021/08/24 01:14:01;;;;;;;2.40;1.70;;;16.40;99.90;;;;;;5092620;28;20229;-73
2021/08/24 01:16:38;;;;;;;1.73;1.50;;;16.40;99.90;;;;;;5108631;28;20250;-73
2021/08/24 01:19:23;;;;;;;1.50;1.40;;;16.20;99.90;;;;;;5109575;28;20267;-73
2021/08/24 01:22:29;;;;;;;1.83;1.60;;;16.20;99.90;;;;;;5109750;28;20281;-70
2021/08/24 01:25:02;;;;;;;4.63;1.90;;;16.10;99.90;;;;;;5083972;27;20550;-70
2021/08/24 01:27:33;;;;;;;2.60;1.80;;;16.10;99.90;;;;;;5109274;28;20322;-70
2021/08/24 01:30:19;;;;;;;1.77;1.60;;;16.20;99.90;;;;;;5109497;28;20253;-72
2021/08/24 01:32:57;;;;;;;1.63;1.40;;;16.20;99.90;;;;;;5108864;28;20232;-72
2021/08/24 01:35:55;;;;;;;2.00;1.57;;;16.20;99.90;;;;;;5108823;28;20644;-72
2021/08/24 01:38:26;;;;;;;2.80;1.63;;;16.20;99.90;;;;;;5108746;28;20660;-72
2021/08/24 01:40:59;;;;;;;3.23;1.73;;;16.10;99.90;;;;;;5109200;28;20630;-72
2021/08/24 01:43:32;;;;;;;3.30;1.33;;;16.10;99.90;;;;;;5109043;28;20217;-72
2021/08/24 01:46:08;;;;;;;3.27;1.83;;;16.10;99.90;;;;;;5108949;28;20214;-72
2021/08/24 01:48:40;;;;;;;1.90;1.80;;;16.10;99.90;;;;;;5108945;28;20189;-72
2021/08/24 01:51:14;;;;;;;4.03;1.80;;;16.10;99.90;;;;;;5109515;28;20195;-72
2021/08/24 01:53:47;;;;;;;3.07;1.67;;;16.10;99.90;;;;;;5108624;28;20277;-72
2021/08/24 01:56:19;;;;;;;1.90;1.50;;;16.10;99.90;;;;;;5108705;28;20190;-72
2021/08/24 01:58:49;;;;;;;2.50;1.43;;;16.00;99.90;;;;;;5108698;28;20206;-72
2021/08/24 02:01:20;;;;;;;3.67;1.77;;;16.00;99.90;;;;;;5108934;28;20247;-71
2021/08/24 02:03:50;;;;;;;2.93;1.40;;;16.00;99.90;;;;;;5108763;28;20244;-71
2021/08/24 02:06:23;;;;;;;2.87;1.70;;;15.90;99.90;;;;;;5108471;28;20748;-71
2021/08/24 02:08:55;;;;;;;4.73;1.77;;;15.90;99.90;;;;;;5108619;28;20583;-70
2021/08/24 02:11:23;;;;;;;2.97;1.50;;;15.90;99.90;;;;;;5108444;28;20214;-71
2021/08/24 02:13:51;;;;;;;1.97;1.50;;;15.90;99.90;;;;;;5108629;28;20251;-71
2021/08/24 02:16:22;;;;;;;2.40;1.63;;;15.90;99.90;;;;;;5108606;28;20735;-70
2021/08/24 02:18:53;;;;;;;2.00;1.70;;;15.80;99.90;;;;;;5108347;28;20697;-70
2021/08/24 02:21:24;;;;;;;2.30;1.60;;;15.60;99.90;;;;;;5108653;28;20194;-69
2021/08/24 02:23:54;;;;;;;3.50;2.13;;;15.70;99.90;;;;;;5108722;28;20245;-70
2021/08/24 02:26:25;;;;;;;2.50;1.93;;;15.60;99.90;;;;;;5108705;28;20234;-71
2021/08/24 02:28:55;;;;;;;1.87;1.70;;;15.60;99.90;;;;;;5112236;28;20279;-71
2021/08/24 02:31:28;;;;;;;5.03;1.80;;;15.70;99.90;;;;;;5109713;28;20214;-70
2021/08/24 02:34:00;;;;;;;2.17;1.70;;;15.60;99.90;;;;;;5088854;28;20215;-71
2021/08/24 02:36:29;;;;;;;2.43;1.60;;;15.60;99.90;;;;;;5088589;28;20198;-71
2021/08/24 02:39:01;;;;;;;2.00;1.73;;;15.60;99.90;;;;;;5088657;28;20213;-70
2021/08/24 02:41:34;;;;;;;2.00;1.80;;;15.60;99.90;;;;;;5088525;28;20195;-70
2021/08/24 02:44:09;;;;;;;2.63;1.40;;;15.60;99.90;;;;;;5088610;28;20210;-71
2021/08/24 02:46:40;;;;;;;1.97;1.50;;;15.60;99.90;;;;;;5088043;28;20299;-70
2021/08/24 02:49:10;;;;;;;3.33;1.77;;;15.60;99.90;;;;;;5088584;28;20271;-72
2021/08/24 02:51:36;;;;;;;1.90;1.80;;;15.60;99.90;;;;;;5088150;28;20264;-72
2021/08/24 02:54:11;;;;;;;2.27;1.40;;;15.60;99.90;;;;;;5087864;28;20277;-70
2021/08/24 02:56:38;;;;;;;2.07;1.53;;;15.60;99.90;;;;;;5087990;28;20259;-70
2021/08/24 02:59:04;;;;;;;4.37;1.90;;;15.50;99.90;;;;;;5088108;28;20207;-70
2021/08/24 03:01:31;;;;;;;3.70;1.83;;;15.50;99.90;;;;;;5087971;28;20246;-70
2021/08/24 03:03:59;;;;;;;2.73;1.57;;;15.60;99.90;;;;;;5087811;28;20245;-71
2021/08/24 03:06:25;;;;;;;2.50;1.70;;;15.50;99.90;;;;;;5087577;28;20308;-71
2021/08/24 03:08:52;;;;;;;2.53;1.70;;;15.50;99.90;;;;;;5087458;28;20210;-71
2021/08/24 03:11:26;;;;;;;2.23;1.47;;;15.40;99.90;;;;;;5087671;28;20570;-71
2021/08/24 03:13:58;;;;;;;1.90;1.63;;;15.40;99.90;;;;;;5087481;28;20267;-71
2021/08/24 03:16:30;;;;;;;2.53;1.90;;;15.40;99.90;;;;;;5087546;28;20272;-70
2021/08/24 03:19:01;;;;;;;1.60;1.50;;;15.40;99.90;;;;;;5105676;28;20599;-71
2021/08/24 03:21:33;;;;;;;2.17;1.50;;;15.40;99.90;;;;;;5111115;28;20206;-70
2021/08/24 03:24:01;;;;;;;5.50;1.77;;;15.40;99.90;;;;;;5110849;28;20191;-70
2021/08/24 03:26:33;;;;;;;2.27;1.70;;;15.40;99.90;;;;;;5111527;28;20309;-70
2021/08/24 03:28:59;;;;;;;2.00;1.70;;;15.30;99.90;;;;;;5110993;28;20915;-70
2021/08/24 03:31:28;;;;;;;1.80;1.70;;;15.30;99.90;;;;;;5111297;28;20253;-70
2021/08/24 03:33:55;;;;;;;1.87;1.63;;;15.30;99.90;;;;;;5111511;28;20213;-70
2021/08/24 03:36:22;;;;;;;2.57;1.43;;;15.30;99.90;;;;;;5111560;28;20271;-71
2021/08/24 03:38:48;;;;;;;1.47;1.37;;;15.30;99.90;;;;;;5109954;28;20912;-70
2021/08/24 03:41:15;;;;;;;2.10;1.57;;;15.30;99.90;;;;;;5111571;28;20202;-70
2021/08/24 03:43:43;;;;;;;3.50;1.80;;;15.30;99.90;;;;;;5111271;28;20202;-70
2021/08/24 03:46:10;;;;;;;2.27;1.70;;;15.30;99.90;;;;;;5111428;28;20210;-70
2021/08/24 03:48:37;;;;;;;1.83;1.43;;;15.30;99.90;;;;;;5110910;28;20757;-70
2021/08/24 03:51:03;;;;;;;3.40;1.70;;;15.30;99.90;;;;;;5111286;28;20229;-71
2021/08/24 03:53:30;;;;;;;2.37;1.63;;;15.30;99.90;;;;;;5111049;27;20261;-70
2021/08/24 03:55:57;;;;;;;3.33;1.40;;;15.30;99.90;;;;;;5110879;28;20210;-70
2021/08/24 03:58:23;;;;;;;2.07;1.83;;;15.20;99.90;;;;;;5111392;28;20233;-70
2021/08/24 04:00:52;;;;;;;2.43;1.70;;;15.20;99.90;;;;;;5110901;28;20202;-70
2021/08/24 04:03:18;;;;;;;1.63;1.53;;;15.20;99.90;;;;;;5111060;28;20551;-70
2021/08/24 04:05:45;;;;;;;2.10;1.90;;;15.20;99.90;;;;;;5110663;28;20205;-70
2021/08/24 04:08:12;;;;;;;1.60;1.50;;;15.10;99.90;;;;;;5110287;28;20712;-70
2021/08/24 04:10:40;;;;;;;2.37;1.83;;;15.10;99.90;;;;;;5110337;28;20615;-70
2021/08/24 04:13:07;;;;;;;2.07;1.63;;;15.20;99.90;;;;;;5110736;28;20206;-71
2021/08/24 04:15:34;;;;;;;2.17;1.77;;;15.10;99.90;;;;;;5110593;28;20202;-70
2021/08/24 04:18:01;;;;;;;3.63;2.00;;;15.10;99.90;;;;;;5110497;28;20601;-70
2021/08/24 04:20:28;;;;;;;3.10;1.70;;;15.10;99.90;;;;;;5110621;28;20541;-71
2021/08/24 04:22:54;;;;;;;3.10;1.60;;;15.10;99.90;;;;;;5110530;28;20681;-70
2021/08/24 04:25:21;;;;;;;1.60;1.50;;;15.10;99.90;;;;;;5110581;28;20247;-71
2021/08/24 04:27:48;;;;;;;3.17;2.30;;;15.10;99.90;;;;;;5110371;28;20278;-70
2021/08/24 04:30:15;;;;;;;2.47;1.87;;;15.10;99.90;;;;;;5110356;28;20252;-70
2021/08/24 04:32:43;;;;;;;2.40;2.00;;;15.10;99.90;;;;;;5110137;28;20427;-71
2021/08/24 04:35:12;;;;;;;2.73;2.00;;;15.10;99.90;;;;;;5109995;28;20210;-71
2021/08/24 04:37:39;;;;;;;2.73;1.93;;;15.10;99.90;;;;;;5109908;28;20612;-70
2021/08/24 04:40:07;;;;;;;4.73;1.70;;;15.10;99.90;;;;;;5110213;28;20206;-70
2021/08/24 04:42:34;;;;;;;2.87;2.27;;;15.10;99.90;;;;;;5109782;28;20206;-71
2021/08/24 04:45:01;;;;;;;3.90;2.17;;;15.10;99.90;;;;;;5110114;28;20222;-70
2021/08/24 04:47:27;;;;;;;5.30;1.97;;;15.10;99.90;;;;;;5109830;28;20241;-70
2021/08/24 04:49:54;;;;;;;2.20;1.80;;;15.10;99.90;;;;;;5109976;27;20210;-70
2021/08/24 04:52:22;;;;;;;2.37;1.90;;;15.10;99.90;;;;;;5110334;28;20202;-71
2021/08/24 04:54:49;;;;;;;3.50;2.10;;;15.10;99.90;;;;;;5109361;28;20234;-70
2021/08/24 04:57:16;;;;;;;4.27;2.20;;;15.10;99.90;;;;;;5110670;28;20214;-71
2021/08/24 04:59:42;;;;;;;4.07;2.20;;;15.10;99.90;;;;;;5109531;28;20228;-70
2021/08/24 05:02:09;;;;;;;2.50;2.10;;;15.10;99.90;;;;;;5109727;28;20279;-70
2021/08/24 05:04:35;;;;;;;2.57;2.13;;;15.10;99.90;;;;;;5109636;28;20333;-70
2021/08/24 05:07:02;;;;;;;2.00;1.77;;;15.10;99.90;;;;;;5109567;28;20832;-70
2021/08/24 05:09:30;;;;;;;4.70;1.80;;;15.10;99.90;;;;;;5109830;28;20203;-70
2021/08/24 05:11:57;;;;;;;3.50;2.60;;;15.10;99.90;;;;;;5109251;28;20760;-71
2021/08/24 05:14:24;;;;;;;3.97;2.10;;;15.10;99.90;;;;;;5109169;28;20217;-70
2021/08/24 05:16:54;;;;;;;4.00;2.30;;;15.10;99.90;;;;;;5102864;28;20264;-70
2021/08/24 05:19:21;;;;;;;2.20;2.00;;;15.10;99.90;;;;;;5089213;28;20238;-71
2021/08/24 05:21:47;;;;;;;2.63;2.20;;;15.10;99.90;;;;;;5088802;28;20210;-71
2021/08/24 05:24:14;;;;;;;2.27;1.77;;;15.10;99.90;;;;;;5089025;28;20619;-70
2021/08/24 05:26:42;;;;;;;3.27;2.10;;;15.10;99.90;;;;;;5088853;28;20348;-70
2021/08/24 05:29:08;;;;;;;3.87;2.07;;;15.00;99.90;;;;;;5088914;28;20262;-70
2021/08/24 05:31:35;;;;;;;3.07;2.00;;;15.10;99.90;;;;;;5088925;28;20638;-70
2021/08/24 05:34:04;;;;;;;2.93;1.70;;;15.00;99.90;;;;;;5088987;28;20615;-70
2021/08/24 05:36:31;;;;;;;3.10;2.07;;;15.10;99.90;;;;;;5088919;28;20211;-71
2021/08/24 05:38:57;;;;;;;3.13;2.13;;;15.10;99.90;;;;;;5088538;28;20335;-71
2021/08/24 05:41:24;;;;;;;1.80;1.70;;;15.10;99.90;;;;;;5088479;28;20718;-71
2021/08/24 05:43:52;;;;;;;3.07;1.63;;;15.20;99.90;;;;;;5088579;28;20264;-70
2021/08/24 05:46:19;;;;;;;3.03;1.73;;;15.20;99.90;;;;;;5088276;28;20758;-71
2021/08/24 05:48:45;;;;;;;3.30;1.80;;;15.20;99.90;;;;;;5088393;28;20238;-71
2021/08/24 05:51:14;;;;;;;3.13;1.87;;;15.30;99.90;;;;;;5088066;28;20673;-70
2021/08/24 05:53:41;;;;;;;3.13;1.73;;;15.20;99.90;;;;;;5088190;28;20231;-70
2021/08/24 05:56:09;;;;;;;1.70;1.60;;;15.30;99.90;;;;;;5088575;28;20206;-70
2021/08/24 05:58:35;;;;;;;2.53;2.00;;;15.30;99.90;;;;;;5088373;28;20292;-70
2021/08/24 06:01:04;;;;;;;2.60;1.50;;;15.20;99.90;;;;;;5088194;28;20207;-71
2021/08/24 06:03:30;;;;;;;2.27;2.03;;;15.30;99.90;;;;;;5087956;28;20740;-70
2021/08/24 06:05:58;;;;;;;3.10;1.87;;;15.30;99.90;;;;;;5087945;28;20771;-71
2021/08/24 06:08:24;;;;;;;1.73;1.63;;;15.30;99.90;;;;;;5088380;28;20237;-71
2021/08/24 06:10:51;;;;;;;3.00;1.87;;;15.40;99.90;;;;;;5088219;28;20202;-70
2021/08/24 06:13:18;;;;;;;5.33;1.90;;;15.40;99.90;;;;;;5088170;28;20558;-70
2021/08/24 06:15:44;;;;;;;2.30;1.87;;;15.50;99.90;;;;;;5088332;28;20284;-71
2021/08/24 06:18:12;;;;;;;2.03;1.70;;;15.50;99.90;;;;;;5088600;28;20202;-71
2021/08/24 06:20:39;;;;;;;1.60;1.50;;;15.50;99.90;;;;;;5088131;28;20207;-70
2021/08/24 06:23:06;;;;;;;3.70;1.70;;;15.60;99.90;;;;;;5088177;28;20215;-70
2021/08/24 06:25:33;;;;;;;4.90;2.03;;;15.60;99.90;;;;;;5088378;28;20303;-70
2021/08/24 06:27:59;;;;;;;3.40;1.70;;;15.70;99.90;;;;;;5088265;28;20257;-70
2021/08/24 06:30:26;;;;;;;3.23;1.83;;;15.70;99.90;;;;;;5088400;28;20239;-70
2021/08/24 06:32:56;;;;;;;1.90;1.80;;;15.70;99.90;;;;;;5087889;28;20254;-70
2021/08/24 06:35:24;;;;;;;1.80;1.43;;;15.80;99.90;;;;;;5088231;28;20199;-70
2021/08/24 06:37:51;;;;;;;3.43;1.57;;;15.80;99.90;;;;;;5088439;28;20256;-70
2021/08/24 06:40:18;;;;;;;1.60;1.50;;;15.90;99.90;;;;;;5088172;28;20207;-70
2021/08/24 06:42:47;;;;;;;2.97;1.47;;;15.90;99.90;;;;;;5088273;28;20272;-70
2021/08/24 06:45:19;;;;;;;1.80;1.60;;;15.90;99.90;;;;;;5088277;28;20206;-70
2021/08/24 06:47:46;;;;;;;1.40;1.30;;;16.00;99.90;;;;;;5087602;28;20327;-70
2021/08/24 06:50:13;;;;;;;2.30;1.87;;;16.00;99.90;;;;;;5087851;28;20207;-70
2021/08/24 06:52:42;;;;;;;1.90;1.70;;;16.00;99.90;;;;;;5088355;28;20237;-70
2021/08/24 06:55:09;;;;;;;2.30;1.73;;;16.10;99.90;;;;;;5087560;28;20269;-71
2021/08/24 06:57:37;;;;;;;1.80;1.70;;;16.10;99.90;;;;;;5087968;28;20206;-70
2021/08/24 07:00:05;;;;;;;2.27;1.73;;;16.10;99.90;;;;;;5087994;28;20215;-70
2021/08/24 07:02:32;;;;;;;2.03;1.70;;;16.10;99.90;;;;;;5087862;28;20198;-71
2021/08/24 07:04:58;;;;;;;2.53;2.33;;;16.20;99.90;;;;;;5087859;28;20563;-70
2021/08/24 07:07:25;;;;;;;3.70;1.80;;;16.30;99.90;;;;;;5087577;28;20227;-70
2021/08/24 07:09:53;;;;;;;3.00;1.80;;;16.30;99.90;;;;;;5087275;28;20843;-71
2021/08/24 07:12:19;;;;;;;2.23;1.80;;;16.40;99.90;;;;;;5087564;28;20657;-70
2021/08/24 07:14:46;;;;;;;2.47;1.70;;;16.40;99.90;;;;;;5089244;28;20603;-70
2021/08/24 07:17:13;;;;;;;2.30;1.87;;;16.50;99.90;;;;;;5091632;28;20206;-71
2021/08/24 07:19:39;;;;;;;3.23;1.60;;;16.50;99.90;;;;;;5091448;28;20242;-70
2021/08/24 07:22:06;;;;;;;3.07;1.57;;;16.50;99.90;;;;;;5091373;28;20633;-71
2021/08/24 07:24:32;;;;;;;1.57;1.47;;;16.60;99.90;;;;;;5091183;28;20202;-70
2021/08/24 07:27:00;;;;;;;1.60;1.30;;;16.60;99.90;;;;;;5091246;28;20203;-70
2021/08/24 07:29:27;;;;;;;1.63;1.53;;;16.70;99.90;;;;;;5091252;28;20266;-70
2021/08/24 07:31:54;;;;;;;1.37;1.27;;;16.70;99.90;;;;;;5091053;28;20226;-71
2021/08/24 07:34:20;;;;;;;1.97;1.80;;;16.80;99.90;;;;;;5090875;28;20550;-71
2021/08/24 07:36:47;;;;;;;2.77;1.90;;;16.80;99.90;;;;;;5090921;28;20264;-71
2021/08/24 07:39:13;;;;;;;2.27;1.40;;;16.90;99.90;;;;;;5091013;28;20238;-71
2021/08/24 07:41:40;;;;;;;1.40;1.30;;;17.00;99.90;;;;;;5090927;28;20206;-71
2021/08/24 07:44:09;;;;;;;1.97;1.70;;;17.00;99.90;;;;;;5090910;28;20240;-71
2021/08/24 07:46:36;;;;;;;2.03;1.30;;;17.10;99.90;;;;;;5090737;28;20590;-70
2021/08/24 07:49:03;;;;;;;1.87;1.60;;;17.10;99.90;;;;;;5090620;28;20332;-70
2021/08/24 07:51:30;;;;;;;1.70;1.60;;;17.20;99.90;;;;;;5090841;28;20264;-71
2021/08/24 07:53:59;;;;;;;1.57;1.47;;;17.20;99.90;;;;;;5090485;28;20300;-70
2021/08/24 07:56:26;;;;;;;1.73;1.63;;;17.30;99.90;;;;;;5091056;28;20255;-71
2021/08/24 07:58:53;;;;;;;1.70;1.60;;;17.40;99.90;;;;;;5090940;28;20203;-71
2021/08/24 08:01:21;;;;;;;3.00;1.87;;;17.50;99.90;;;;;;5090587;28;20225;-71
2021/08/24 08:03:47;;;;;;;1.93;1.23;;;17.50;99.90;;;;;;5090683;28;20207;-71
2021/08/24 08:06:14;;;;;;;1.30;1.27;;;17.50;99.90;;;;;;5090638;28;20258;-71
2021/08/24 08:08:40;;;;;;;1.43;1.33;;;17.60;99.90;;;;;;5090455;28;20327;-71
2021/08/24 08:11:07;;;;;;;3.80;1.63;;;17.70;99.90;;;;;;5090204;28;20252;-71
2021/08/24 08:13:34;;;;;;;2.07;1.53;;;17.70;99.90;;;;;;5090502;28;20264;-71
2021/08/24 08:16:00;;;;;;;3.63;1.50;;;17.80;99.90;;;;;;5090478;28;20224;-71
2021/08/24 08:18:28;;;;;;;1.97;1.60;;;17.80;99.90;;;;;;5089591;28;20234;-71
2021/08/24 08:20:55;;;;;;;2.53;1.73;;;17.90;99.90;;;;;;5089467;28;20206;-71
2021/08/24 08:23:23;;;;;;;1.50;1.40;;;18.00;99.90;;;;;;5090082;28;20370;-71
2021/08/24 08:25:49;;;;;;;1.63;1.47;;;18.00;99.90;;;;;;5089681;28;20248;-71
2021/08/24 08:28:16;;;;;;;2.10;1.47;;;18.10;99.90;;;;;;5090111;28;20227;-70
2021/08/24 08:30:44;;;;;;;1.70;1.60;;;18.20;99.90;;;;;;5089745;28;20222;-71
2021/08/24 08:33:11;;;;;;;2.00;1.40;;;18.20;99.90;;;;;;5089988;28;20199;-71
2021/08/24 08:35:40;;;;;;;1.70;1.60;;;18.30;99.90;;;;;;5090059;28;20291;-71
2021/08/24 08:38:08;;;;;;;1.50;1.40;;;18.40;99.90;;;;;;5089403;28;20628;-70
2021/08/24 08:40:47;;;;;;;1.40;1.30;;;18.50;99.90;;;;;;5089988;28;20211;-70
2021/08/24 08:43:24;;;;;;;2.83;1.50;;;18.50;99.90;;;;;;5090137;28;20190;-70
2021/08/24 08:45:52;;;;;;;3.17;1.77;;;18.60;99.90;;;;;;5089748;28;20255;-70
2021/08/24 08:48:29;;;;;;;2.97;1.73;;;18.60;99.90;;;;;;5089399;28;20628;-71
2021/08/24 08:51:00;;;;;;;1.30;1.20;;;18.70;99.90;;;;;;5089691;28;20268;-71
2021/08/24 08:53:38;;;;;;;1.60;1.50;;;18.80;99.90;;;;;;5089575;28;20270;-71
2021/08/24 08:56:10;;;;;;;1.47;1.37;;;18.90;99.90;;;;;;5089683;28;20260;-71
2021/08/24 08:58:46;;;;;;;1.70;1.30;;;18.90;99.90;;;;;;5089534;28;20234;-71
2021/08/24 09:01:18;;;;;;;1.60;1.50;;;19.00;99.90;;;;;;5089662;28;20562;-71
2021/08/24 09:03:53;;;;;;;1.60;1.50;;;19.00;99.90;;;;;;5089575;28;20254;-71
2021/08/24 09:06:23;;;;;;;1.40;1.30;;;19.10;99.90;;;;;;5089132;28;20282;-71
2021/08/24 09:08:51;;;;;;;2.00;1.50;;;19.10;99.90;;;;;;5089202;28;20219;-71
2021/08/24 09:11:18;;;;;;;2.27;1.60;;;19.20;99.90;;;;;;5089416;28;20295;-71
2021/08/24 09:13:48;;;;;;;6.43;1.73;;;19.30;99.90;;;;;;5088970;28;20625;-71
2021/08/24 09:16:27;;;;;;;1.43;1.30;;;19.30;99.90;;;;;;5089069;28;20558;-72
2021/08/24 09:18:57;;;;;;;1.70;1.60;;;19.40;99.90;;;;;;5089078;28;20230;-71
2021/08/24 09:21:27;;;;;;;1.77;1.67;;;19.40;99.90;;;;;;5089259;28;20259;-71
2021/08/24 09:23:55;;;;;;;1.80;1.70;;;19.50;99.90;;;;;;5088934;28;20195;-71
2021/08/24 09:26:38;;;;;;;2.10;1.70;;;19.60;99.90;;;;;;5089138;28;20236;-71
2021/08/24 09:29:05;;;;;;;2.10;1.40;;;19.70;99.90;;;;;;5088541;28;20234;-71
2021/08/24 09:31:33;;;;;;;2.43;1.40;;;19.80;99.90;;;;;;5088805;28;20226;-71
2021/08/24 09:34:00;;;;;;;1.97;1.70;;;19.80;99.90;;;;;;5088937;28;20238;-71
2021/08/24 09:36:28;;;;;;;2.00;1.80;;;19.80;99.90;;;;;;5088633;28;20288;-71
2021/08/24 09:38:56;;;;;;;1.83;1.47;;;20.00;99.90;;;;;;5088694;28;20613;-71
2021/08/24 09:41:25;;;;;;;1.53;1.43;;;20.10;99.90;;;;;;5088572;28;20570;-71
2021/08/24 09:43:54;;;;;;;1.70;1.50;;;20.30;99.90;;;;;;5088620;28;20555;-71
2021/08/24 09:46:30;;;;;;;2.03;1.83;;;20.40;99.90;;;;;;5088682;28;20315;-71
2021/08/24 09:49:00;;;;;;;1.80;1.70;;;20.50;99.90;;;;;;5088327;28;20692;-71
2021/08/24 09:51:41;;;;;;;2.13;1.73;;;20.60;99.90;;;;;;5088935;28;20225;-71
2021/08/24 09:54:16;;;;;;;5.00;2.10;;;20.70;99.90;;;;;;5088080;28;20234;-71
2021/08/24 09:56:51;;;;;;;2.00;1.80;;;20.70;99.90;;;;;;5088301;28;20194;-71
2021/08/24 09:59:25;;;;;;;2.00;1.60;;;20.70;99.90;;;;;;5088331;28;20530;-71
2021/08/24 10:01:52;;;;;;;2.63;2.00;;;20.50;99.90;;;;;;5088094;28;20241;-71
2021/08/24 10:04:19;;;;;;;1.90;1.80;;;20.40;99.90;;;;;;5088256;28;20210;-71
2021/08/24 10:06:57;;;;;;;2.30;1.97;;;20.50;99.90;;;;;;5088399;28;20265;-71
2021/08/24 10:09:30;;;;;;;2.57;1.70;;;20.40;99.90;;;;;;5088363;28;20281;-71
2021/08/24 10:12:14;;;;;;;2.00;1.80;;;20.40;99.90;;;;;;5087852;28;20205;-71
2021/08/24 10:14:41;;;;;;;3.30;2.10;;;20.30;99.90;;;;;;5088142;28;20226;-71
2021/08/24 10:17:13;;;;;;;4.00;2.10;;;20.30;99.90;;;;;;5088199;28;20206;-71
2021/08/24 10:19:43;;;;;;;3.67;2.20;;;20.30;99.90;;;;;;5088275;28;20187;-71
2021/08/24 10:22:17;;;;;;;2.30;2.10;;;20.30;99.90;;;;;;5088019;28;20193;-71
2021/08/24 10:24:55;;;;;;;1.80;1.70;;;20.40;99.90;;;;;;5088000;28;20633;-71
2021/08/24 10:27:26;;;;;;;3.33;1.80;;;20.60;99.90;;;;;;5088269;28;20193;-71
2021/08/24 10:29:56;;;;;;;2.60;1.90;;;20.80;99.90;;;;;;5087937;28;20311;-71
2021/08/24 10:32:27;;;;;;;2.30;2.10;;;21.00;99.90;;;;;;5088095;28;20327;-71
2021/08/24 10:34:54;;;;;;;2.47;2.23;;;21.30;99.90;;;;;;5088259;28;20244;-71
2021/08/24 10:37:43;;;;;;;3.23;1.97;;;21.40;99.90;;;;;;5088306;28;20712;-71
2021/08/24 10:40:25;;;;;;;3.13;2.13;;;21.30;99.90;;;;;;5087980;28;20195;-71
2021/08/24 10:43:17;;;;;;;2.10;1.90;;;21.20;99.90;;;;;;5087881;28;20198;-71
2021/08/24 10:45:46;;;;;;;2.50;2.30;;;21.20;99.90;;;;;;5088382;28;20562;-71
2021/08/24 10:48:17;;;;;;;2.47;1.90;;;21.30;99.90;;;;;;5088686;28;20250;-71
2021/08/24 10:50:52;;;;;;;2.57;1.80;;;21.30;99.90;;;;;;5092219;28;20276;-71
2021/08/24 10:53:34;;;;;;;2.27;2.07;;;21.30;99.90;;;;;;5091743;28;20294;-71
2021/08/24 10:56:08;;;;;;;2.28;2.00;;;21.40;99.90;;;;;;5091804;28;20249;-71
2021/08/24 10:58:40;;;;;;;2.00;1.90;;;21.50;99.90;;;;;;5091410;28;20671;-71
2021/08/24 11:01:16;;;;;;;2.50;2.30;;;21.60;99.90;;;;;;5091470;28;20195;-71
2021/08/24 11:03:55;;;;;;;3.50;2.00;;;21.70;99.90;;;;;;5091233;28;20226;-71
2021/08/24 11:06:29;;;;;;;2.73;1.90;;;21.70;99.90;;;;;;5091606;28;20223;-71
2021/08/24 11:09:08;;;;;;;2.17;1.83;;;21.60;99.90;;;;;;5091486;28;20199;-71
2021/08/24 11:11:44;;;;;;;2.08;1.98;;;21.60;99.90;;;;;;5091432;28;20194;-71
2021/08/24 11:14:22;;;;;;;2.07;1.87;;;21.80;99.80;;;;;;5091500;28;20195;-71
2021/08/24 11:17:00;;;;;;;4.18;1.85;;;21.90;99.50;;;;;;5091448;28;20221;-71
2021/08/24 11:19:40;;;;;;;2.92;1.85;;;22.00;99.70;;;;;;5091206;28;20230;-71
2021/08/24 11:22:16;;;;;;;2.00;1.90;;;22.10;99.80;;;;;;5091383;28;20248;-71
2021/08/24 11:24:57;;;;;;;2.42;2.08;;;22.10;99.40;;;;;;5091054;28;20769;-71
2021/08/24 11:27:34;;;;;;;1.90;1.80;;;22.00;99.10;;;;;;5091246;28;20191;-71
2021/08/24 11:30:08;;;;;;;1.98;1.88;;;22.00;97.90;;;;;;5090908;28;20223;-71
2021/08/24 11:32:40;;;;;;;1.92;1.83;;;22.20;98.60;;;;;;5091076;28;20236;-71
2021/08/24 11:35:12;;;;;;;3.58;2.08;;;22.30;97.50;;;;;;5091040;28;20234;-71
2021/08/24 11:37:45;;;;;;;3.75;1.98;;;22.50;97.40;;;;;;5090714;28;20681;-71
2021/08/24 11:40:19;;;;;;;2.70;2.50;;;22.70;98.10;;;;;;5090974;28;20191;-71
2021/08/24 11:42:48;;;;;;;2.00;1.90;;;22.80;97.30;;;;;;5090999;28;20194;-71
2021/08/24 11:45:20;;;;;;;2.80;2.28;;;23.00;97.20;;;;;;5090606;28;20550;-71
2021/08/24 11:47:53;;;;;;;2.90;2.70;;;23.10;96.80;;;;;;5090580;28;20688;-71
2021/08/24 11:50:24;;;;;;;2.85;2.42;;;23.10;95.90;;;;;;5090715;28;20276;-71
2021/08/24 11:52:58;;;;;;;2.97;2.78;;;23.10;96.30;;;;;;5090651;28;20220;-71
2021/08/24 11:55:29;;;;;;;3.92;2.90;;;23.10;96.20;;;;;;5091000;28;20268;-71
2021/08/24 11:58:05;;;;;;;3.45;3.15;;;23.30;96.40;;;;;;5090792;28;20195;-71
2021/08/24 12:00:33;;;;;;;3.83;3.33;;;23.40;95.40;;;;;;5090036;28;20187;-71
2021/08/24 12:03:02;;;;;;;3.28;3.00;;;23.50;95.30;;;;;;5090478;28;20199;-71
2021/08/24 12:05:34;;;;;;;4.22;3.45;;;23.60;95.10;;;;;;5090653;28;20245;-71
2021/08/24 12:08:04;;;;;;;4.35;3.13;;;23.80;94.20;;;;;;5090337;28;20248;-71
2021/08/24 12:10:36;;;;;;;5.13;2.97;;;23.80;94.60;;;;;;5090290;28;20250;-71
2021/08/24 12:13:06;;;;;;;3.72;3.17;;;23.90;94.50;;;;;;5090240;28;20240;-71
2021/08/24 12:15:39;;;;;;;5.82;3.83;;;24.10;95.50;;;;;;5090273;28;20667;-72
2021/08/24 12:18:25;;;;;;;3.63;3.10;;;24.30;94.50;;;;;;5089946;28;20280;-71
2021/08/24 12:20:54;;;;;;;3.53;3.22;;;24.40;94.20;;;;;;5090390;28;20195;-71
2021/08/24 12:23:35;;;;;;;7.25;3.58;;;24.40;94.30;;;;;;5089976;28;20215;-71
2021/08/24 12:26:23;;;;;;;4.25;3.83;;;24.30;95.00;;;;;;5090017;28;20199;-71
2021/08/24 12:28:51;;;;;;;4.35;3.35;;;24.10;94.80;;;;;;5089741;28;20753;-71
2021/08/24 12:31:36;;;;;;;3.55;3.28;;;24.10;95.30;;;;;;5089490;28;20688;-71
2021/08/24 12:34:41;;;;;;;3.53;3.20;;;24.10;94.60;;;;;;5089622;28;20244;-71
2021/08/24 12:37:49;;;;;;;3.95;3.60;;;24.20;94.60;;;;;;5089348;28;20216;-71
2021/08/24 12:40:50;;;;;;;4.10;3.70;;;24.20;93.60;;;;;;5089533;28;20221;-71
2021/08/24 12:43:38;;;;;;;3.90;3.60;;;24.40;94.40;;;;;;5087569;28;20199;-71
2021/08/24 12:46:30;;;;;;;4.00;3.70;;;24.50;93.40;;;;;;5089510;28;20256;-71
2021/08/24 12:49:40;;;;;;;3.45;3.25;;;24.80;93.40;;;;;;5089599;28;20198;-72
2021/08/24 12:52:30;;;;;;;3.72;3.42;;;24.80;93.30;;;;;;5089574;28;20198;-72
2021/08/24 12:55:03;;;;;;;4.38;3.97;;;24.80;93.20;;;;;;5089040;28;20700;-71
2021/08/24 12:57:33;;;;;;;3.60;3.30;;;24.60;93.50;;;;;;5089166;28;20665;-72
2021/08/24 13:00:26;;;;;;;3.60;3.15;;;24.60;93.70;;;;;;5089235;28;20261;-72
2021/08/24 13:03:05;;;;;;;3.65;3.35;;;24.60;93.80;;;;;;5089302;28;20222;-72
2021/08/24 13:05:34;;;;;;;3.95;3.60;;;24.70;93.20;;;;;;5088921;28;20704;-71
2021/08/24 13:08:20;;;;;;;3.40;3.10;;;24.80;93.20;;;;;;5089338;28;20199;-71